Time;durP1;ratioP1;P1;durP2;ratioP2;P2;SDS_P1;SDS_P2;PMS_P1;PMS_P2;Temp;Humidity;BMP_temperature;BMP_pressure;BME280_temperature;BME280_humidity;BME280_pressure;Samples;Min_cycle;Max_cycle;Signal;HPM_P1;HPM_P2
2023/06/09 00:00:36;;;;;;;13.77;4.90;;;;;;;14.39;100.00;101468.38;5024869;28;20477;-55
2023/06/09 00:03:03;;;;;;;9.98;4.40;;;;;;;14.35;100.00;101462.31;5008424;28;20099;-53
2023/06/09 00:05:32;;;;;;;13.98;5.53;;;;;;;14.32;100.00;101456.22;5029101;28;20479;-52
2023/06/09 00:08:00;;;;;;;8.77;4.57;;;;;;;14.73;100.00;101519.13;5023917;28;20044;-53
2023/06/09 00:10:26;;;;;;;10.23;4.97;;;;;;;14.27;100.00;101432.59;5030096;28;20033;-52
2023/06/09 00:12:52;;;;;;;9.32;4.43;;;;;;;14.69;100.00;101517.50;5028117;28;20120;-52
2023/06/09 00:15:18;;;;;;;10.20;4.75;;;;;;;14.31;100.00;101460.66;5029717;28;20042;-52
2023/06/09 00:17:44;;;;;;;12.82;4.55;;;;;;;14.23;100.00;101445.97;5025790;28;20037;-52
2023/06/09 00:20:09;;;;;;;10.35;5.05;;;;;;;14.51;100.00;101494.34;5030799;28;20404;-54
2023/06/09 00:22:42;;;;;;;11.00;4.82;;;;;;;14.60;100.00;101521.38;5033369;28;20041;-49
2023/06/09 00:25:09;;;;;;;11.82;4.75;;;;;;;14.25;100.00;101452.06;5030219;28;20037;-52
2023/06/09 00:27:34;;;;;;;12.50;5.32;;;;;;;14.53;100.00;101511.94;5033784;28;20120;-53
2023/06/09 00:30:00;;;;;;;12.13;5.30;;;;;;;14.53;100.00;101508.44;5029278;28;20462;-49
2023/06/09 00:32:25;;;;;;;10.95;5.20;;;;;;;14.04;100.00;101435.22;5008979;28;20495;-50
2023/06/09 00:34:50;;;;;;;13.43;5.07;;;;;;;13.95;100.00;101425.00;5027890;28;20477;-52
2023/06/09 00:37:16;;;;;;;8.60;4.80;;;;;;;14.46;100.00;101507.78;5029512;28;20120;-49
2023/06/09 00:39:41;;;;;;;17.15;4.80;;;;;;;13.88;100.00;101407.59;5028620;28;20037;-49
2023/06/09 00:42:07;;;;;;;12.63;5.55;;;;;;;14.10;100.00;101446.44;5029574;28;20060;-50
2023/06/09 00:44:32;;;;;;;11.57;4.97;;;;;;;14.33;100.00;101493.28;5028721;28;20048;-51
2023/06/09 00:46:57;;;;;;;11.20;4.07;;;;;;;13.97;100.00;101439.03;5022492;28;20026;-50
2023/06/09 00:49:23;;;;;;;11.13;5.03;;;;;;;14.12;100.00;101466.72;5040519;28;20064;-50
2023/06/09 00:51:48;;;;;;;11.63;5.38;;;;;;;14.28;100.00;101494.34;5022672;28;20061;-50
2023/06/09 00:54:14;;;;;;;12.82;5.10;;;;;;;13.85;100.00;101419.16;5038194;28;20111;-51
2023/06/09 00:56:40;;;;;;;12.23;5.30;;;;;;;14.23;100.00;101498.94;5024740;28;20041;-51
2023/06/09 00:59:08;;;;;;;13.82;6.13;;;;;;;14.06;100.00;101476.63;5040484;28;20088;-53
2023/06/09 01:01:33;;;;;;;8.85;4.60;;;;;;;14.09;100.00;101496.81;5025005;28;20073;-50
2023/06/09 01:04:00;;;;;;;13.35;4.70;;;;;;;14.10;100.00;101499.38;5028348;28;20071;-50
2023/06/09 01:06:56;;;;;;;10.32;5.32;;;;;;;14.10;100.00;101504.69;5026654;28;20425;-50
2023/06/09 01:09:28;;;;;;;10.57;4.68;;;;;;;14.04;100.00;101504.91;5027204;28;20118;-53
2023/06/09 01:12:02;;;;;;;14.48;4.90;;;;;;;13.99;100.00;101487.47;5025843;28;20039;-51
2023/06/09 01:14:33;;;;;;;11.50;5.00;;;;;;;13.28;100.00;101365.72;5028434;28;20116;-51
2023/06/09 01:17:11;;;;;;;11.07;5.20;;;;;;;13.67;100.00;101438.34;5040797;28;20033;-54
2023/06/09 01:19:40;;;;;;;13.38;5.80;;;;;;;13.93;100.00;101490.31;5027284;28;20638;-48
2023/06/09 01:22:45;;;;;;;15.20;5.82;;;;;;;13.90;100.00;101488.66;5036256;28;20021;-51
2023/06/09 01:25:34;;;;;;;12.73;5.25;;;;;;;13.89;100.00;101499.31;4999973;28;20053;-50
2023/06/09 01:28:26;;;;;;;11.10;6.10;;;;;;;13.87;100.00;101496.69;5020800;28;20028;-49
2023/06/09 01:30:52;;;;;;;13.32;5.28;;;;;;;13.41;100.00;101425.16;5030818;28;20393;-52
2023/06/09 01:33:21;;;;;;;14.45;5.95;;;;;;;13.83;100.00;101487.16;5024844;28;20044;-52
2023/06/09 01:35:47;;;;;;;10.85;5.85;;;;;;;13.33;100.00;101404.28;5027449;28;20049;-50
2023/06/09 01:38:15;;;;;;;14.60;5.05;;;;;;;13.75;100.00;101475.97;5026920;28;20068;-51
2023/06/09 01:40:40;;;;;;;10.18;6.18;;;;;;;13.33;100.00;101406.06;5025476;28;20091;-52
2023/06/09 01:43:06;;;;;;;17.17;5.72;;;;;;;13.75;100.00;101486.53;5027899;28;20042;-49
2023/06/09 01:45:32;;;;;;;14.65;5.55;;;;;;;13.33;100.00;101406.06;5040441;28;20046;-51
2023/06/09 01:47:58;;;;;;;13.63;5.90;;;;;;;13.71;100.00;101473.50;5038800;28;20481;-51
2023/06/09 01:50:30;;;;;;;12.27;5.63;;;;;;;13.66;100.00;101476.28;5026422;28;20041;-53
2023/06/09 01:53:12;;;;;;;10.27;5.75;;;;;;;13.69;100.00;101478.00;5027283;28;20052;-54
2023/06/09 01:55:51;;;;;;;11.52;5.45;;;;;;;13.64;100.00;101461.38;5028395;28;20030;-50
2023/06/09 01:58:25;;;;;;;11.52;6.47;;;;;;;13.42;100.00;101424.25;5026332;28;20041;-54
2023/06/09 02:00:51;;;;;;;13.73;6.13;;;;;;;13.63;100.00;101457.88;4996285;28;20463;-52
2023/06/09 02:03:20;;;;;;;13.43;6.45;;;;;;;13.64;100.00;101464.03;5026882;28;20034;-50
2023/06/09 02:05:46;;;;;;;13.75;5.43;;;;;;;13.60;100.00;101467.72;5028373;28;20033;-53
2023/06/09 02:08:12;;;;;;;9.38;5.63;;;;;;;13.57;100.00;101459.88;5037701;28;20033;-48
2023/06/09 02:10:38;;;;;;;10.88;5.63;;;;;;;13.06;100.00;101372.59;5027991;28;20107;-54
2023/06/09 02:13:13;;;;;;;12.48;6.38;;;;;;;13.56;100.00;101461.66;5019594;28;20048;-50
2023/06/09 02:15:40;;;;;;;10.77;5.70;;;;;;;13.20;100.00;101388.88;5037721;28;20041;-49
2023/06/09 02:18:06;;;;;;;12.32;5.78;;;;;;;13.11;100.00;101387.41;5024875;28;20067;-50
2023/06/09 02:20:32;;;;;;;10.07;5.65;;;;;;;13.51;100.00;101450.38;5036320;28;20069;-49
2023/06/09 02:23:05;;;;;;;10.98;6.05;;;;;;;13.50;100.00;101453.94;5047509;28;20484;-55
2023/06/09 02:25:32;;;;;;;12.77;5.70;;;;;;;13.39;100.00;101435.81;5032302;28;20458;-51
2023/06/09 02:27:58;;;;;;;9.07;5.60;;;;;;;13.49;100.00;101454.84;5045103;28;20037;-51
2023/06/09 02:30:23;;;;;;;12.73;5.95;;;;;;;13.47;100.00;101467.28;5050695;28;20044;-50
2023/06/09 02:32:49;;;;;;;9.18;5.45;;;;;;;13.44;100.00;101465.59;5025189;28;20037;-55
2023/06/09 02:35:14;;;;;;;11.65;5.75;;;;;;;13.40;100.00;101457.81;5036841;28;20037;-54
2023/06/09 02:37:41;;;;;;;11.13;5.70;;;;;;;13.40;100.00;101463.97;5050097;28;20428;-51
2023/06/09 02:40:08;;;;;;;10.63;5.38;;;;;;;13.31;100.00;101443.13;5048756;28;20074;-52
2023/06/09 02:42:34;;;;;;;11.00;5.20;;;;;;;13.23;100.00;101436.38;5041173;28;20036;-53
2023/06/09 02:45:00;;;;;;;10.52;5.47;;;;;;;12.97;100.00;101387.88;5048090;28;20048;-50
2023/06/09 02:47:25;;;;;;;12.57;5.45;;;;;;;13.29;100.00;101446.72;5044220;28;20037;-50
2023/06/09 02:49:51;;;;;;;9.73;5.07;;;;;;;13.38;100.00;101454.34;5045171;28;20389;-50
2023/06/09 02:52:16;;;;;;;11.48;5.20;;;;;;;12.90;100.00;101385.50;5049288;28;20041;-50
2023/06/09 02:54:43;;;;;;;9.25;5.10;;;;;;;13.30;100.00;101452.00;5046526;28;20052;-53
2023/06/09 02:57:09;;;;;;;11.30;5.55;;;;;;;13.29;100.00;101459.94;5042377;28;20033;-54
2023/06/09 02:59:34;;;;;;;13.25;5.60;;;;;;;13.27;100.00;101467.09;5025382;28;20042;-53
2023/06/09 03:01:59;;;;;;;10.98;5.25;;;;;;;12.87;100.00;101393.53;5043272;28;20037;-53
2023/06/09 03:04:25;;;;;;;8.43;5.70;;;;;;;13.24;100.00;101453.97;5048524;28;20375;-54
2023/06/09 03:06:53;;;;;;;10.48;6.15;;;;;;;12.90;100.00;101393.41;5024243;28;20049;-51
2023/06/09 03:09:19;;;;;;;12.02;5.57;;;;;;;13.06;100.00;101421.03;5043355;28;20035;-51
2023/06/09 03:11:45;;;;;;;9.85;5.55;;;;;;;13.25;100.00;101467.13;5046475;28;20399;-54
2023/06/09 03:14:12;;;;;;;11.13;5.30;;;;;;;13.19;100.00;101432.94;5045360;28;20040;-49
2023/06/09 03:16:37;;;;;;;10.27;5.40;;;;;;;12.87;100.00;101391.72;5031539;28;20515;-53
2023/06/09 03:19:03;;;;;;;10.90;5.10;;;;;;;13.25;100.00;101447.78;5043766;28;20044;-50
2023/06/09 03:21:28;;;;;;;12.63;5.03;;;;;;;13.26;100.00;101445.06;5053131;28;20525;-51
2023/06/09 03:23:53;;;;;;;12.13;4.90;;;;;;;13.27;100.00;101459.16;5044323;28;20396;-52
2023/06/09 03:26:19;;;;;;;12.10;4.95;;;;;;;12.66;100.00;101362.50;5041789;28;20056;-52
2023/06/09 03:28:44;;;;;;;7.28;5.13;;;;;;;13.23;100.00;101447.81;5041377;28;20542;-53
2023/06/09 03:31:10;;;;;;;11.35;4.97;;;;;;;13.17;100.00;101442.72;5049356;28;20035;-51
2023/06/09 03:33:35;;;;;;;8.25;4.80;;;;;;;12.74;100.00;101363.13;5025043;28;20045;-49
2023/06/09 03:36:02;;;;;;;10.23;4.88;;;;;;;12.88;100.00;101398.72;5048605;28;20033;-53
2023/06/09 03:38:28;;;;;;;11.20;5.80;;;;;;;13.21;100.00;101457.56;5043624;28;20057;-53
2023/06/09 03:40:53;;;;;;;10.10;5.22;;;;;;;12.68;100.00;101363.31;5041222;28;20068;-49
2023/06/09 03:43:18;;;;;;;9.50;4.97;;;;;;;13.08;100.00;101424.53;5030898;28;20037;-50
2023/06/09 03:45:43;;;;;;;10.82;5.28;;;;;;;13.25;100.00;101453.91;5038719;28;20147;-53
2023/06/09 03:48:09;;;;;;;9.38;5.28;;;;;;;13.26;100.00;101460.06;5046377;28;20552;-53
2023/06/09 03:50:34;;;;;;;9.30;4.93;;;;;;;12.88;100.00;101392.59;5045770;28;20459;-52
2023/06/09 03:53:00;;;;;;;11.27;5.22;;;;;;;13.27;100.00;101460.03;5027232;28;20386;-52
2023/06/09 03:55:26;;;;;;;12.10;4.95;;;;;;;13.26;100.00;101452.13;5045126;28;20127;-51
2023/06/09 03:57:51;;;;;;;10.63;5.28;;;;;;;13.32;100.00;101463.38;5044225;28;20034;-50
2023/06/09 04:00:18;;;;;;;11.48;4.88;;;;;;;13.37;100.00;101455.25;5036622;28;20171;-54
2023/06/09 04:02:43;;;;;;;8.98;4.78;;;;;;;13.28;100.00;101429.16;5035167;28;20029;-52
2023/06/09 04:05:09;;;;;;;11.70;5.90;;;;;;;13.40;100.00;101452.50;5042133;28;20049;-49
2023/06/09 04:07:34;;;;;;;10.70;5.18;;;;;;;13.40;100.00;101453.38;5007647;28;20184;-49
2023/06/09 04:10:00;;;;;;;9.27;4.70;;;;;;;12.99;100.00;101393.09;5046937;28;20063;-48
2023/06/09 04:12:26;;;;;;;11.70;5.20;;;;;;;13.43;100.00;101463.00;5027872;28;20037;-50
2023/06/09 04:14:51;;;;;;;9.38;5.10;;;;;;;13.24;100.00;101425.75;5044959;28;20395;-50
2023/06/09 04:17:17;;;;;;;13.65;5.55;;;;;;;13.41;100.00;101464.84;5025492;28;20472;-51
2023/06/09 04:19:42;;;;;;;7.72;4.82;;;;;;;13.26;100.00;101447.72;5042017;28;20529;-50
2023/06/09 04:22:07;;;;;;;7.68;4.43;;;;;;;13.47;100.00;101465.50;5053774;28;20451;-53
2023/06/09 04:24:34;;;;;;;12.13;5.25;;;;;;;12.94;100.00;101381.81;5050339;28;20049;-51
2023/06/09 04:27:01;;;;;;;8.30;4.65;;;;;;;13.13;100.00;101401.47;5047814;28;20063;-50
2023/06/09 04:29:28;;;;;;;8.18;4.60;;;;;;;13.40;100.00;101458.66;5029644;28;20025;-52
2023/06/09 04:31:58;;;;;;;8.10;4.75;;;;;;;13.49;100.00;101465.44;5041151;28;20036;-54
2023/06/09 04:34:27;;;;;;;11.25;4.68;;;;;;;13.36;100.00;101445.63;5044677;28;20108;-53
2023/06/09 04:36:55;;;;;;;11.73;5.05;;;;;;;13.48;100.00;101466.38;5043385;28;20657;-51
2023/06/09 04:39:21;;;;;;;7.97;4.63;;;;;;;13.54;100.00;101469.63;5041057;28;20037;-51
2023/06/09 04:41:48;;;;;;;9.07;4.90;;;;;;;13.15;100.00;101410.19;5044555;28;21052;-54
2023/06/09 04:44:13;;;;;;;8.10;4.78;;;;;;;13.22;100.00;101417.00;5044796;28;20032;-53
2023/06/09 04:46:41;;;;;;;12.93;5.10;;;;;;;13.57;100.00;101474.00;5045147;28;20032;-51
2023/06/09 04:49:09;;;;;;;11.32;5.03;;;;;;;13.12;100.00;101385.66;5042169;28;20029;-52
2023/06/09 04:51:46;;;;;;;8.50;4.70;;;;;;;13.23;100.00;101399.34;5040136;28;20032;-52
2023/06/09 04:54:13;;;;;;;11.35;5.25;;;;;;;13.67;100.00;101487.72;4991809;28;20048;-49
2023/06/09 04:56:38;;;;;;;10.82;5.22;;;;;;;13.35;100.00;101428.88;5023243;28;20036;-54
2023/06/09 04:59:04;;;;;;;10.85;4.65;;;;;;;13.68;100.00;101476.25;5037261;28;20389;-53
2023/06/09 05:01:30;;;;;;;12.77;5.70;;;;;;;13.28;100.00;101394.78;5036312;28;20069;-53
2023/06/09 05:03:55;;;;;;;7.97;5.00;;;;;;;13.74;100.00;101465.44;5026359;28;20033;-52
2023/06/09 05:06:21;;;;;;;11.85;5.10;;;;;;;13.71;100.00;101468.19;5044011;28;20041;-53
2023/06/09 05:08:47;;;;;;;11.32;5.75;;;;;;;13.46;100.00;101412.63;5044725;28;20053;-53
2023/06/09 05:11:12;;;;;;;9.52;5.13;;;;;;;13.94;100.00;101484.13;5043731;28;20033;-51
2023/06/09 05:13:37;;;;;;;12.45;5.05;;;;;;;13.97;100.00;101490.19;5045988;28;20063;-54
2023/06/09 05:16:04;;;;;;;10.55;5.68;;;;;;;14.00;100.00;101475.97;5044634;28;20049;-50
2023/06/09 05:18:30;;;;;;;8.95;5.22;;;;;;;13.80;100.00;101425.53;5041048;28;20094;-49
2023/06/09 05:20:56;;;;;;;9.85;5.32;;;;;;;14.18;100.00;101477.94;5046577;28;20048;-51
2023/06/09 05:23:21;;;;;;;12.35;4.95;;;;;;;14.27;100.00;101482.03;5051468;28;20037;-52
2023/06/09 05:25:47;;;;;;;15.10;5.93;;;;;;;14.35;100.00;101486.16;5042046;28;20626;-51
2023/06/09 05:28:12;;;;;;;9.15;5.25;;;;;;;14.05;100.00;101418.41;5041821;28;20531;-50
2023/06/09 05:30:37;;;;;;;12.85;6.05;;;;;;;14.24;100.00;101450.38;5044626;28;20048;-51
2023/06/09 05:33:03;;;;;;;10.13;5.20;;;;;;;14.19;100.00;101416.09;5021551;28;20028;-50
2023/06/09 05:35:28;;;;;;;9.10;5.60;;;;;;;14.73;100.00;101500.56;5042608;28;20075;-53
2023/06/09 05:37:53;;;;;;;11.52;5.55;;;;;;;14.81;100.00;101497.63;5047206;28;20033;-50
2023/06/09 05:40:19;;;;;;;12.45;6.25;;;;;;;14.89;100.00;101499.03;5043204;28;20040;-49
2023/06/09 05:42:44;;;;;;;14.25;6.40;;;;;;;14.55;100.00;101419.16;5043052;28;20044;-50
2023/06/09 05:45:10;;;;;;;11.43;6.03;;;;;;;15.03;100.00;101495.84;5042957;28;20048;-52
2023/06/09 05:47:35;;;;;;;12.10;5.93;;;;;;;15.01;100.00;101482.66;5038875;28;20040;-51
2023/06/09 05:50:00;;;;;;;12.70;5.85;;;;;;;14.86;100.00;101434.69;5038219;28;20044;-51
2023/06/09 05:52:26;;;;;;;11.15;5.80;;;;;;;15.35;100.00;101494.53;5039175;28;20037;-50
2023/06/09 05:54:51;;;;;;;9.73;5.88;;;;;;;15.08;100.00;101431.09;5042072;28;20166;-50
2023/06/09 05:57:18;;;;;;;14.30;6.63;;;;;;;15.04;100.00;101439.22;5044422;28;20033;-52
2023/06/09 05:59:44;;;;;;;16.90;6.13;;;;;;;15.50;100.00;101488.63;5026826;28;20044;-53
2023/06/09 06:02:09;;;;;;;12.00;6.40;;;;;;;15.23;100.00;101432.25;5038828;28;20040;-47
2023/06/09 06:04:35;;;;;;;14.65;6.20;;;;;;;15.36;100.00;101433.44;5044443;28;20033;-50
2023/06/09 06:07:00;;;;;;;9.80;5.90;;;;;;;15.79;100.00;101471.44;5042212;28;20033;-54
2023/06/09 06:09:26;;;;;;;15.65;6.07;;;;;;;15.59;100.00;101421.88;5040984;28;20033;-48
2023/06/09 06:11:51;;;;;;;11.32;5.68;;;;;;;16.14;100.00;101497.28;5036761;28;21809;-51
2023/06/09 06:14:16;;;;;;;10.38;5.40;;;;;;;15.80;100.00;101425.38;5042402;28;20374;-49
2023/06/09 06:16:42;;;;;;;10.63;6.70;;;;;;;16.22;100.00;101498.69;5029677;28;20042;-51
2023/06/09 06:19:08;;;;;;;13.40;6.05;;;;;;;16.30;100.00;101508.94;5027561;28;20034;-52
2023/06/09 06:21:35;;;;;;;11.00;6.35;;;;;;;16.46;100.00;101488.69;5030846;28;20038;-51
2023/06/09 06:24:00;;;;;;;14.18;6.40;;;;;;;16.53;100.00;101491.94;5027019;28;20068;-51
2023/06/09 06:26:26;;;;;;;10.65;6.15;;;;;;;16.58;100.00;101498.78;5026990;28;20481;-50
2023/06/09 06:28:51;;;;;;;11.93;6.30;;;;;;;16.67;100.00;101498.38;5027253;28;20040;-53
2023/06/09 06:31:16;;;;;;;10.40;5.65;;;;;;;16.44;100.00;101431.25;5027644;28;20124;-52
2023/06/09 06:33:43;;;;;;;13.15;6.10;;;;;;;16.56;100.00;101436.88;5038077;28;20057;-52
2023/06/09 06:36:08;;;;;;;12.13;6.43;;;;;;;17.11;100.00;101504.22;5026214;28;21448;-53
2023/06/09 06:38:34;;;;;;;10.35;5.90;;;;;;;17.27;100.00;101502.53;5027312;28;20044;-52
2023/06/09 06:40:59;;;;;;;11.20;5.97;;;;;;;17.43;100.00;101506.13;5016311;28;20596;-49
2023/06/09 06:43:25;;;;;;;13.32;6.20;;;;;;;17.17;100.00;101433.88;5026278;28;20381;-51
2023/06/09 06:45:50;;;;;;;9.50;6.25;;;;;;;17.38;100.00;101454.09;5026974;28;20033;-52
2023/06/09 06:48:15;;;;;;;13.38;6.45;;;;;;;17.72;100.00;101511.81;5023052;28;20034;-53
2023/06/09 06:50:41;;;;;;;14.10;6.50;;;;;;;17.81;100.00;101506.00;5037173;28;20026;-51
2023/06/09 06:53:07;;;;;;;13.45;6.28;;;;;;;17.57;100.00;101456.72;5022068;28;20048;-49
2023/06/09 06:55:33;;;;;;;10.68;5.90;;;;;;;17.82;100.00;101500.63;5023620;28;20556;-49
2023/06/09 06:57:58;;;;;;;13.48;7.07;;;;;;;17.29;100.00;101388.91;5027554;28;20034;-49
2023/06/09 07:00:24;;;;;;;14.10;7.28;;;;;;;17.57;100.00;101406.97;5023480;28;20176;-51
2023/06/09 07:02:50;;;;;;;11.80;6.43;;;;;;;17.83;100.00;101430.41;5014642;28;20052;-51
2023/06/09 07:05:16;;;;;;;12.25;6.80;;;;;;;18.22;100.00;101499.38;5024581;28;20469;-48
2023/06/09 07:07:43;;;;;;;11.48;6.97;;;;;;;18.03;100.00;101437.38;5044233;28;20530;-52
2023/06/09 07:10:09;;;;;;;10.45;6.07;;;;;;;18.14;100.00;101421.66;5030687;28;20084;-49
2023/06/09 07:12:35;;;;;;;9.27;6.18;;;;;;;18.77;100.00;101488.38;5029211;28;20051;-49
2023/06/09 07:15:00;;;;;;;13.85;6.70;;;;;;;18.47;100.00;101427.81;5031864;28;20503;-52
2023/06/09 07:17:26;;;;;;;11.50;7.55;;;;;;;19.00;100.00;101493.31;5019990;28;20054;-53
2023/06/09 07:19:51;;;;;;;9.77;6.53;;;;;;;19.25;100.00;101490.06;5029546;28;20455;-53
2023/06/09 07:22:17;;;;;;;12.30;6.90;;;;;;;19.02;100.00;101438.91;5044954;28;20037;-53
2023/06/09 07:24:43;;;;;;;12.15;7.03;;;;;;;19.44;100.00;101493.44;5045337;28;20033;-52
2023/06/09 07:27:08;;;;;;;12.30;6.93;;;;;;;19.39;100.00;101482.16;5040315;28;20087;-53
2023/06/09 07:29:37;;;;;;;12.20;6.50;;;;;;;19.27;100.00;101434.78;5048296;28;20033;-54
2023/06/09 07:32:03;;;;;;;11.38;6.43;;;;;;;19.61;100.00;101496.81;5047733;28;20607;-53
2023/06/09 07:34:29;;;;;;;12.40;6.88;;;;;;;19.72;100.00;101493.50;5024128;28;20063;-55
2023/06/09 07:36:54;;;;;;;12.48;6.50;;;;;;;19.94;100.00;101509.94;5035886;28;20037;-52
2023/06/09 07:39:27;;;;;;;11.55;7.22;;;;;;;20.01;100.00;101443.63;5046021;28;20085;-52
2023/06/09 07:41:53;;;;;;;10.35;5.72;;;;;;;20.63;100.00;101499.41;5042000;28;20396;-52
2023/06/09 07:44:18;;;;;;;11.57;7.03;;;;;;;20.82;100.00;101499.06;5041023;28;20041;-52
2023/06/09 07:46:44;;;;;;;11.93;6.88;;;;;;;20.97;100.00;101451.72;5040655;28;20079;-52
2023/06/09 07:49:09;;;;;;;12.00;6.38;;;;;;;21.26;100.00;101456.03;5046324;28;20385;-54
2023/06/09 07:51:37;;;;;;;13.88;6.75;;;;;;;22.01;100.00;101510.78;5049250;28;20567;-49
2023/06/09 07:54:04;;;;;;;10.73;6.68;;;;;;;22.69;100.00;101517.50;5028750;28;20033;-53
2023/06/09 07:56:29;;;;;;;11.15;6.85;;;;;;;23.14;100.00;101529.41;5044203;28;20048;-53
2023/06/09 07:58:55;;;;;;;8.75;6.65;;;;;;;23.42;100.00;101526.41;5025598;28;20045;-51
2023/06/09 08:01:20;;;;;;;10.57;6.88;;;;;;;23.12;100.00;101501.78;5045949;28;20048;-52
2023/06/09 08:03:45;;;;;;;13.13;6.43;;;;;;;23.27;100.00;101503.31;5040061;28;20052;-54
2023/06/09 08:06:11;;;;;;;8.38;5.90;;;;;;;23.91;100.00;101534.25;5044774;28;20453;-50
2023/06/09 08:08:37;;;;;;;16.50;6.63;;;;;;;24.31;100.00;101532.06;5042584;28;20442;-54
2023/06/09 08:11:02;;;;;;;11.90;6.70;;;;;;;24.69;100.00;101534.41;5040078;28;20029;-52
2023/06/09 08:13:28;;;;;;;15.15;6.85;;;;;;;24.74;100.00;101536.69;5044771;28;20066;-51
2023/06/09 08:15:53;;;;;;;13.95;6.65;;;;;;;24.73;100.00;101533.16;5041749;28;21660;-53
2023/06/09 08:18:19;;;;;;;12.13;7.50;;;;;;;24.38;100.00;101484.84;5041360;28;20051;-52
2023/06/09 08:20:44;;;;;;;12.63;6.65;;;;;;;24.36;100.00;101454.53;5033041;28;20037;-52
2023/06/09 08:23:10;;;;;;;14.02;7.55;;;;;;;24.74;100.00;101505.25;5043913;28;20047;-54
2023/06/09 08:25:35;;;;;;;10.73;7.85;;;;;;;24.96;100.00;101539.38;5047559;28;20041;-51
2023/06/09 08:28:01;;;;;;;11.25;7.65;;;;;;;25.30;100.00;101537.50;5026245;28;20040;-51
2023/06/09 08:30:27;;;;;;;11.63;6.70;;;;;;;25.01;100.00;101486.03;5038957;28;20039;-49
2023/06/09 08:32:52;;;;;;;11.90;7.07;;;;;;;25.57;100.00;101546.84;5016315;28;20630;-52
2023/06/09 08:35:17;;;;;;;14.05;8.15;;;;;;;25.02;100.00;101495.78;5022833;28;20509;-50
2023/06/09 08:37:44;;;;;;;10.73;6.72;;;;;;;25.34;100.00;101507.44;5019312;28;20090;-53
2023/06/09 08:40:10;;;;;;;10.68;7.40;;;;;;;25.65;100.00;101532.72;5034879;28;20037;-52
2023/06/09 08:42:36;;;;;;;10.82;7.45;;;;;;;24.93;100.00;101528.88;5026787;28;20037;-51
2023/06/09 08:45:04;;;;;;;15.35;8.07;;;;;;;24.72;100.00;101461.47;5031738;28;20239;-54
2023/06/09 08:47:30;;;;;;;15.95;8.73;;;;;;;24.61;100.00;101477.59;5033253;28;20501;-52
2023/06/09 08:49:59;;;;;;;11.38;8.07;;;;;;;24.95;100.00;101498.16;5030350;28;20095;-53
2023/06/09 08:52:25;;;;;;;17.25;8.23;;;;;;;25.46;100.00;101535.22;4996319;28;20424;-53
2023/06/09 08:54:52;;;;;;;15.77;8.20;;;;;;;25.65;100.00;101495.84;5012448;28;20236;-54
2023/06/09 08:57:18;;;;;;;13.95;7.95;;;;;;;25.91;100.00;101473.88;5015400;28;20489;-54
2023/06/09 08:59:46;;;;;;;16.00;7.75;;;;;;;26.38;100.00;101529.13;5015348;28;20034;-54
2023/06/09 09:02:12;;;;;;;13.25;8.60;;;;;;;26.63;100.00;101532.22;5011954;28;20133;-54
2023/06/09 09:04:40;;;;;;;16.55;8.32;;;;;;;27.01;100.00;101515.31;5013471;28;20124;-55
2023/06/09 09:07:06;;;;;;;11.93;8.35;;;;;;;26.66;100.00;101493.28;5014285;28;20048;-56
2023/06/09 09:09:32;;;;;;;14.55;8.25;;;;;;;26.80;100.00;101534.28;5030860;28;20117;-55
2023/06/09 09:11:59;;;;;;;12.32;8.13;;;;;;;26.91;100.00;101509.03;5032810;28;20461;-52
2023/06/09 09:14:24;;;;;;;13.68;8.27;;;;;;;26.59;100.00;101478.63;5011509;28;20405;-54
2023/06/09 09:16:49;;;;;;;12.25;8.55;;;;;;;26.61;100.00;101534.22;5012671;28;20064;-55
2023/06/09 09:19:24;;;;;;;14.82;8.52;;;;;;;27.00;100.00;101534.38;5027527;28;20439;-53
2023/06/09 09:21:49;;;;;;;14.27;8.70;;;;;;;26.95;100.00;101521.25;5021214;28;20030;-55
2023/06/09 09:24:15;;;;;;;11.80;7.57;;;;;;;27.59;100.00;101521.66;5013045;28;20030;-50
2023/06/09 09:26:41;;;;;;;14.15;8.35;;;;;;;27.78;100.00;101491.03;5026943;28;20550;-53
2023/06/09 09:29:07;;;;;;;9.68;7.50;;;;;;;27.81;100.00;101461.84;5032277;28;20030;-51
2023/06/09 09:31:39;;;;;;;13.15;8.73;;;;;;;28.16;100.00;101480.16;5032556;28;20029;-51
2023/06/09 09:34:06;;;;;;;10.80;8.85;;;;;;;27.98;100.00;101471.06;5020189;28;20042;-53
2023/06/09 09:36:33;;;;;;;15.02;8.45;;;;;;;27.78;100.00;101520.78;5032231;28;20059;-56
2023/06/09 09:39:05;;;;;;;11.20;8.00;;;;;;;28.11;100.00;101530.31;5025543;28;20060;-54
2023/06/09 09:41:31;;;;;;;14.15;8.75;;;;;;;28.29;100.00;101479.81;5026498;28;20052;-54
2023/06/09 09:43:57;;;;;;;14.30;9.05;;;;;;;27.97;100.00;101476.59;5020003;28;20037;-56
2023/06/09 09:46:23;;;;;;;13.18;8.88;;;;;;;28.77;100.00;101514.84;5026684;28;20025;-54
2023/06/09 09:48:49;;;;;;;9.80;8.50;;;;;;;28.87;100.00;101456.88;5024657;28;20522;-55
2023/06/09 09:51:15;;;;;;;15.07;9.52;;;;;;;28.66;100.00;101469.84;5006039;28;20121;-52
2023/06/09 09:53:43;;;;;;;13.80;9.32;;;;;;;28.19;100.00;101443.81;5027188;28;20045;-52
2023/06/09 09:56:09;;;;;;;13.15;9.15;;;;;;;28.56;100.00;101514.19;5031952;28;20084;-55
2023/06/09 09:58:36;;;;;;;14.07;8.35;;;;;;;28.69;100.00;101517.47;5012939;28;20056;-55
2023/06/09 10:01:06;;;;;;;12.73;8.95;;;;;;;29.44;100.00;101525.28;5014144;28;20049;-54
2023/06/09 10:03:33;;;;;;;12.95;8.88;;;;;;;29.19;100.00;101466.38;5025119;28;20676;-54
2023/06/09 10:06:03;;;;;;;12.80;8.60;;;;;;;29.23;100.00;101455.06;5027598;28;20060;-53
2023/06/09 10:08:31;;;;;;;13.50;9.13;;;;;;;29.60;100.00;101511.84;5026721;28;20392;-56
2023/06/09 10:10:59;;;;;;;11.25;8.70;;;;;;;29.38;100.00;101494.19;5030032;28;20030;-55
2023/06/09 10:13:28;;;;;;;11.07;8.45;;;;;;;29.33;100.00;101450.44;5025408;28;20036;-55
2023/06/09 10:15:54;;;;;;;15.50;8.02;;;;;;;29.58;100.00;101511.16;5004859;28;20070;-55
2023/06/09 10:18:21;;;;;;;15.55;9.75;;;;;;;29.29;100.00;101505.97;5010653;28;20056;-53
2023/06/09 10:20:48;;;;;;;14.60;9.02;;;;;;;29.19;100.00;101496.19;5010445;28;20029;-55
2023/06/09 10:23:14;;;;;;;12.15;8.02;;;;;;;29.21;100.00;101407.41;5003799;28;20087;-53
2023/06/09 10:25:41;;;;;;;15.50;8.32;;;;;;;30.11;100.00;101445.94;5007162;28;20065;-55
2023/06/09 10:28:07;;;;;;;15.27;9.00;;;;;;;30.44;100.00;101498.59;4993705;28;20497;-54
2023/06/09 10:30:33;;;;;;;10.90;8.60;;;;;;;29.90;100.00;101492.47;4977993;28;20038;-55
2023/06/09 10:33:05;;;;;;;13.40;9.52;;;;;;;29.74;100.00;101503.16;4994179;28;20033;-54
2023/06/09 10:35:32;;;;;;;14.32;8.02;;;;;;;30.11;100.00;101505.66;4995032;28;20038;-54
2023/06/09 10:37:59;;;;;;;11.90;8.13;;;;;;;30.71;100.00;101489.38;4993807;28;20156;-55
2023/06/09 10:40:30;;;;;;;13.63;8.32;;;;;;;31.20;100.00;101483.91;5011909;28;20069;-55
2023/06/09 10:42:56;;;;;;;13.15;8.63;;;;;;;30.64;100.00;101506.34;4996792;28;20041;-55
2023/06/09 10:45:21;;;;;;;11.50;8.73;;;;;;;30.83;100.00;101501.63;5015217;28;20429;-57
2023/06/09 10:47:50;;;;;;;10.57;8.73;;;;;;;30.50;100.00;101474.31;4996297;28;20034;-58
2023/06/09 10:50:22;;;;;;;15.77;8.43;;;;;;;30.56;100.00;101489.97;4997295;28;20026;-59
2023/06/09 10:52:54;;;;;;;10.40;8.30;;;;;;;30.41;100.00;101440.03;5012817;28;20033;-57
2023/06/09 10:55:22;;;;;;;12.55;8.57;;;;;;;30.46;100.00;101443.09;5014749;28;20026;-58
2023/06/09 10:57:50;;;;;;;13.85;8.65;;;;;;;30.94;100.00;101480.47;5013336;28;20105;-58
2023/06/09 11:00:16;;;;;;;10.73;8.00;;;;;;;30.76;100.00;101427.22;5012109;28;20030;-53
2023/06/09 11:02:45;;;;;;;9.63;8.70;;;;;;;30.72;100.00;101488.34;5013940;28;20645;-56
2023/06/09 11:05:10;;;;;;;13.15;7.85;;;;;;;31.07;100.00;101474.56;5015489;28;20045;-56
2023/06/09 11:07:49;;;;;;;9.52;7.88;;;;;;;31.46;100.00;101420.34;5015599;28;20029;-56